sensor_id;sensor_type;location;lat;lon;timestamp;temperature;humidity
33580;DHT22;19909;43.644;-79.438;2023-09-19T00:02:04;22.70;58.90
33580;DHT22;19909;43.644;-79.438;2023-09-19T00:04:32;22.70;59.00
33580;DHT22;19909;43.644;-79.438;2023-09-19T00:06:59;22.80;59.10
33580;DHT22;19909;43.644;-79.438;2023-09-19T00:09:25;22.80;59.10
33580;DHT22;19909;43.644;-79.438;2023-09-19T00:11:54;22.80;59.10
33580;DHT22;19909;43.644;-79.438;2023-09-19T00:14:20;22.80;59.10
33580;DHT22;19909;43.644;-79.438;2023-09-19T00:16:50;22.80;59.00
33580;DHT22;19909;43.644;-79.438;2023-09-19T00:19:16;22.80;59.10
33580;DHT22;19909;43.644;-79.438;2023-09-19T00:21:45;22.80;59.80
33580;DHT22;19909;43.644;-79.438;2023-09-19T00:24:12;22.80;59.30
33580;DHT22;19909;43.644;-79.438;2023-09-19T00:26:39;22.80;59.40
33580;DHT22;19909;43.644;-79.438;2023-09-19T00:29:05;22.80;59.40
33580;DHT22;19909;43.644;-79.438;2023-09-19T00:31:37;22.90;59.50
33580;DHT22;19909;43.644;-79.438;2023-09-19T00:34:04;22.90;59.50
33580;DHT22;19909;43.644;-79.438;2023-09-19T00:36:36;22.90;59.60
33580;DHT22;19909;43.644;-79.438;2023-09-19T00:39:08;22.90;59.70
33580;DHT22;19909;43.644;-79.438;2023-09-19T00:41:34;22.90;59.60
33580;DHT22;19909;43.644;-79.438;2023-09-19T00:44:07;22.90;59.50
33580;DHT22;19909;43.644;-79.438;2023-09-19T00:46:34;22.90;59.40
33580;DHT22;19909;43.644;-79.438;2023-09-19T00:49:00;22.90;59.50
33580;DHT22;19909;43.644;-79.438;2023-09-19T00:51:26;22.90;59.60
33580;DHT22;19909;43.644;-79.438;2023-09-19T00:53:54;22.90;59.60
33580;DHT22;19909;43.644;-79.438;2023-09-19T00:56:23;22.90;59.60
33580;DHT22;19909;43.644;-79.438;2023-09-19T00:58:49;22.90;59.70
33580;DHT22;19909;43.644;-79.438;2023-09-19T01:01:16;22.90;59.70
33580;DHT22;19909;43.644;-79.438;2023-09-19T01:03:42;22.90;59.70
33580;DHT22;19909;43.644;-79.438;2023-09-19T01:06:10;22.90;59.70
33580;DHT22;19909;43.644;-79.438;2023-09-19T01:08:36;22.90;59.70
33580;DHT22;19909;43.644;-79.438;2023-09-19T01:11:08;22.90;59.60
33580;DHT22;19909;43.644;-79.438;2023-09-19T01:14:17;22.90;59.40
33580;DHT22;19909;43.644;-79.438;2023-09-19T01:16:57;22.90;59.40
33580;DHT22;19909;43.644;-79.438;2023-09-19T01:20:11;22.90;59.40
33580;DHT22;19909;43.644;-79.438;2023-09-19T01:31:06;22.90;59.60
33580;DHT22;19909;43.644;-79.438;2023-09-19T01:33:54;22.90;59.70
33580;DHT22;19909;43.644;-79.438;2023-09-19T01:36:26;22.90;59.70
33580;DHT22;19909;43.644;-79.438;2023-09-19T01:38:53;22.90;59.70
33580;DHT22;19909;43.644;-79.438;2023-09-19T01:41:26;22.90;59.70
33580;DHT22;19909;43.644;-79.438;2023-09-19T01:43:56;22.90;59.50
33580;DHT22;19909;43.644;-79.438;2023-09-19T01:46:30;22.80;59.40
33580;DHT22;19909;43.644;-79.438;2023-09-19T01:51:46;22.80;59.50
33580;DHT22;19909;43.644;-79.438;2023-09-19T01:54:22;22.90;59.50
33580;DHT22;19909;43.644;-79.438;2023-09-19T01:57:07;22.90;59.50
33580;DHT22;19909;43.644;-79.438;2023-09-19T01:59:43;22.80;59.50
33580;DHT22;19909;43.644;-79.438;2023-09-19T02:02:12;22.80;59.60
33580;DHT22;19909;43.644;-79.438;2023-09-19T02:04:40;22.80;59.60
33580;DHT22;19909;43.644;-79.438;2023-09-19T02:07:06;22.80;59.70
33580;DHT22;19909;43.644;-79.438;2023-09-19T02:09:34;22.80;59.70
33580;DHT22;19909;43.644;-79.438;2023-09-19T02:12:01;22.80;59.50
33580;DHT22;19909;43.644;-79.438;2023-09-19T02:14:29;22.80;59.30
33580;DHT22;19909;43.644;-79.438;2023-09-19T02:16:56;22.80;59.30
33580;DHT22;19909;43.644;-79.438;2023-09-19T02:19:22;22.80;59.30
33580;DHT22;19909;43.644;-79.438;2023-09-19T02:21:48;22.80;59.40
33580;DHT22;19909;43.644;-79.438;2023-09-19T02:24:15;22.80;59.40
33580;DHT22;19909;43.644;-79.438;2023-09-19T02:26:42;22.80;59.50
33580;DHT22;19909;43.644;-79.438;2023-09-19T02:29:10;22.80;59.50
33580;DHT22;19909;43.644;-79.438;2023-09-19T02:31:38;22.70;59.50
33580;DHT22;19909;43.644;-79.438;2023-09-19T02:34:05;22.70;59.50
33580;DHT22;19909;43.644;-79.438;2023-09-19T02:36:32;22.70;59.50
33580;DHT22;19909;43.644;-79.438;2023-09-19T02:38:58;22.70;59.50
33580;DHT22;19909;43.644;-79.438;2023-09-19T02:41:27;22.80;59.40
33580;DHT22;19909;43.644;-79.438;2023-09-19T02:43:55;22.70;59.30
33580;DHT22;19909;43.644;-79.438;2023-09-19T02:46:21;22.70;59.10
33580;DHT22;19909;43.644;-79.438;2023-09-19T02:48:47;22.70;59.20
33580;DHT22;19909;43.644;-79.438;2023-09-19T02:51:13;22.70;59.30
33580;DHT22;19909;43.644;-79.438;2023-09-19T02:53:40;22.70;59.30
33580;DHT22;19909;43.644;-79.438;2023-09-19T02:56:08;22.70;59.40
33580;DHT22;19909;43.644;-79.438;2023-09-19T02:58:38;22.70;59.40
33580;DHT22;19909;43.644;-79.438;2023-09-19T03:01:10;22.70;59.40
33580;DHT22;19909;43.644;-79.438;2023-09-19T03:03:44;22.70;59.50
33580;DHT22;19909;43.644;-79.438;2023-09-19T03:06:14;22.70;59.50
33580;DHT22;19909;43.644;-79.438;2023-09-19T03:08:40;22.70;59.40
33580;DHT22;19909;43.644;-79.438;2023-09-19T03:11:08;22.70;59.40
33580;DHT22;19909;43.644;-79.438;2023-09-19T03:13:37;22.70;59.30
33580;DHT22;19909;43.644;-79.438;2023-09-19T03:16:07;22.70;59.10
33580;DHT22;19909;43.644;-79.438;2023-09-19T03:18:36;22.70;59.10
33580;DHT22;19909;43.644;-79.438;2023-09-19T03:21:02;22.70;59.10
33580;DHT22;19909;43.644;-79.438;2023-09-19T03:23:29;22.70;59.20
33580;DHT22;19909;43.644;-79.438;2023-09-19T03:25:56;22.70;59.30
33580;DHT22;19909;43.644;-79.438;2023-09-19T03:28:25;22.70;59.20
33580;DHT22;19909;43.644;-79.438;2023-09-19T03:31:01;22.70;59.30
33580;DHT22;19909;43.644;-79.438;2023-09-19T03:33:28;22.70;59.30
33580;DHT22;19909;43.644;-79.438;2023-09-19T03:35:54;22.70;59.30
33580;DHT22;19909;43.644;-79.438;2023-09-19T03:38:21;22.70;59.30
33580;DHT22;19909;43.644;-79.438;2023-09-19T03:40:47;22.70;59.30
33580;DHT22;19909;43.644;-79.438;2023-09-19T03:43:14;22.70;59.20
33580;DHT22;19909;43.644;-79.438;2023-09-19T03:45:40;22.60;59.00
33580;DHT22;19909;43.644;-79.438;2023-09-19T03:48:10;22.70;59.10
33580;DHT22;19909;43.644;-79.438;2023-09-19T03:50:36;22.60;59.00
33580;DHT22;19909;43.644;-79.438;2023-09-19T03:53:03;22.60;59.00
33580;DHT22;19909;43.644;-79.438;2023-09-19T03:55:29;22.60;59.10
33580;DHT22;19909;43.644;-79.438;2023-09-19T03:57:58;22.60;59.10
33580;DHT22;19909;43.644;-79.438;2023-09-19T04:00:24;22.60;59.10
33580;DHT22;19909;43.644;-79.438;2023-09-19T04:02:52;22.60;59.10
33580;DHT22;19909;43.644;-79.438;2023-09-19T04:05:19;22.70;59.20
33580;DHT22;19909;43.644;-79.438;2023-09-19T04:07:45;22.70;59.20
33580;DHT22;19909;43.644;-79.438;2023-09-19T04:10:14;22.60;59.10
33580;DHT22;19909;43.644;-79.438;2023-09-19T04:12:40;22.60;59.10
33580;DHT22;19909;43.644;-79.438;2023-09-19T04:15:10;22.60;59.00
33580;DHT22;19909;43.644;-79.438;2023-09-19T04:17:41;22.60;59.00
33580;DHT22;19909;43.644;-79.438;2023-09-19T04:20:08;22.60;58.80
33580;DHT22;19909;43.644;-79.438;2023-09-19T04:22:38;22.60;58.90
33580;DHT22;19909;43.644;-79.438;2023-09-19T04:25:05;22.60;59.00
33580;DHT22;19909;43.644;-79.438;2023-09-19T04:27:37;22.60;59.00
33580;DHT22;19909;43.644;-79.438;2023-09-19T04:30:05;22.60;59.30
33580;DHT22;19909;43.644;-79.438;2023-09-19T04:32:36;22.60;59.10
33580;DHT22;19909;43.644;-79.438;2023-09-19T04:35:09;22.60;59.10
33580;DHT22;19909;43.644;-79.438;2023-09-19T04:37:39;22.60;59.10
33580;DHT22;19909;43.644;-79.438;2023-09-19T04:40:10;22.60;59.10
33580;DHT22;19909;43.644;-79.438;2023-09-19T04:42:41;22.60;59.10
33580;DHT22;19909;43.644;-79.438;2023-09-19T04:45:11;22.60;59.10
33580;DHT22;19909;43.644;-79.438;2023-09-19T04:47:37;22.60;58.90
33580;DHT22;19909;43.644;-79.438;2023-09-19T04:50:08;22.60;58.90
33580;DHT22;19909;43.644;-79.438;2023-09-19T04:52:39;22.60;58.90
33580;DHT22;19909;43.644;-79.438;2023-09-19T04:55:12;22.60;59.00
33580;DHT22;19909;43.644;-79.438;2023-09-19T04:57:49;22.50;59.00
33580;DHT22;19909;43.644;-79.438;2023-09-19T05:00:19;22.60;59.00
33580;DHT22;19909;43.644;-79.438;2023-09-19T05:02:50;22.60;59.00
33580;DHT22;19909;43.644;-79.438;2023-09-19T05:05:19;22.60;59.00
33580;DHT22;19909;43.644;-79.438;2023-09-19T05:07:46;22.60;59.60
33580;DHT22;19909;43.644;-79.438;2023-09-19T05:10:13;22.60;59.00
33580;DHT22;19909;43.644;-79.438;2023-09-19T05:12:39;22.60;59.10
33580;DHT22;19909;43.644;-79.438;2023-09-19T05:15:07;22.60;58.90
33580;DHT22;19909;43.644;-79.438;2023-09-19T05:17:34;22.50;58.90
33580;DHT22;19909;43.644;-79.438;2023-09-19T05:20:01;22.60;58.80
33580;DHT22;19909;43.644;-79.438;2023-09-19T05:22:38;22.50;58.90
33580;DHT22;19909;43.644;-79.438;2023-09-19T05:25:07;22.60;58.90
33580;DHT22;19909;43.644;-79.438;2023-09-19T05:27:33;22.50;58.90
33580;DHT22;19909;43.644;-79.438;2023-09-19T05:30:03;22.60;58.90
33580;DHT22;19909;43.644;-79.438;2023-09-19T05:32:30;22.60;58.90
33580;DHT22;19909;43.644;-79.438;2023-09-19T05:34:56;22.50;58.90
33580;DHT22;19909;43.644;-79.438;2023-09-19T05:37:23;22.50;59.00
33580;DHT22;19909;43.644;-79.438;2023-09-19T05:39:49;22.50;58.90
33580;DHT22;19909;43.644;-79.438;2023-09-19T05:42:15;22.50;59.00
33580;DHT22;19909;43.644;-79.438;2023-09-19T05:44:41;22.50;58.90
33580;DHT22;19909;43.644;-79.438;2023-09-19T05:47:08;22.50;58.80
33580;DHT22;19909;43.644;-79.438;2023-09-19T05:49:37;22.50;58.70
33580;DHT22;19909;43.644;-79.438;2023-09-19T05:52:05;22.50;58.80
33580;DHT22;19909;43.644;-79.438;2023-09-19T05:54:32;22.50;58.80
33580;DHT22;19909;43.644;-79.438;2023-09-19T05:57:03;22.60;58.90
33580;DHT22;19909;43.644;-79.438;2023-09-19T05:59:29;22.50;58.90
33580;DHT22;19909;43.644;-79.438;2023-09-19T06:01:55;22.50;58.90
33580;DHT22;19909;43.644;-79.438;2023-09-19T06:04:21;22.50;58.90
33580;DHT22;19909;43.644;-79.438;2023-09-19T06:06:48;22.50;58.90
33580;DHT22;19909;43.644;-79.438;2023-09-19T06:09:15;22.50;59.00
33580;DHT22;19909;43.644;-79.438;2023-09-19T06:11:44;22.50;59.10
33580;DHT22;19909;43.644;-79.438;2023-09-19T06:14:10;22.50;59.00
33580;DHT22;19909;43.644;-79.438;2023-09-19T06:16:37;22.50;58.90
33580;DHT22;19909;43.644;-79.438;2023-09-19T06:19:07;22.50;58.80
33580;DHT22;19909;43.644;-79.438;2023-09-19T06:21:36;22.50;58.80
33580;DHT22;19909;43.644;-79.438;2023-09-19T06:24:02;22.50;58.80
33580;DHT22;19909;43.644;-79.438;2023-09-19T06:26:29;22.50;58.90
33580;DHT22;19909;43.644;-79.438;2023-09-19T06:28:56;22.50;58.90
33580;DHT22;19909;43.644;-79.438;2023-09-19T06:31:22;22.50;58.90
33580;DHT22;19909;43.644;-79.438;2023-09-19T06:33:52;22.50;59.00
33580;DHT22;19909;43.644;-79.438;2023-09-19T06:36:18;22.50;59.00
33580;DHT22;19909;43.644;-79.438;2023-09-19T06:38:45;22.50;59.00
33580;DHT22;19909;43.644;-79.438;2023-09-19T06:41:12;22.50;59.10
33580;DHT22;19909;43.644;-79.438;2023-09-19T06:43:40;22.50;59.00
33580;DHT22;19909;43.644;-79.438;2023-09-19T06:46:06;22.50;58.90
33580;DHT22;19909;43.644;-79.438;2023-09-19T06:48:34;22.50;58.80
33580;DHT22;19909;43.644;-79.438;2023-09-19T06:51:00;22.50;58.80
33580;DHT22;19909;43.644;-79.438;2023-09-19T06:53:34;22.50;58.90
33580;DHT22;19909;43.644;-79.438;2023-09-19T06:56:02;22.50;58.80
33580;DHT22;19909;43.644;-79.438;2023-09-19T06:58:28;22.50;58.80
33580;DHT22;19909;43.644;-79.438;2023-09-19T07:00:54;22.50;58.90
33580;DHT22;19909;43.644;-79.438;2023-09-19T07:03:22;22.50;59.00
33580;DHT22;19909;43.644;-79.438;2023-09-19T07:05:51;22.40;58.90
33580;DHT22;19909;43.644;-79.438;2023-09-19T07:08:18;22.50;59.10
33580;DHT22;19909;43.644;-79.438;2023-09-19T07:10:45;22.40;58.90
33580;DHT22;19909;43.644;-79.438;2023-09-19T07:13:15;22.50;59.00
33580;DHT22;19909;43.644;-79.438;2023-09-19T07:15:43;22.40;58.80
33580;DHT22;19909;43.644;-79.438;2023-09-19T07:18:13;22.40;58.70
33580;DHT22;19909;43.644;-79.438;2023-09-19T07:20:40;22.40;58.80
33580;DHT22;19909;43.644;-79.438;2023-09-19T07:23:11;22.50;58.90
33580;DHT22;19909;43.644;-79.438;2023-09-19T07:25:41;22.50;58.90
33580;DHT22;19909;43.644;-79.438;2023-09-19T07:28:07;22.50;58.90
33580;DHT22;19909;43.644;-79.438;2023-09-19T07:30:36;22.50;58.90
33580;DHT22;19909;43.644;-79.438;2023-09-19T07:33:07;22.40;58.90
33580;DHT22;19909;43.644;-79.438;2023-09-19T07:35:37;22.40;58.90
33580;DHT22;19909;43.644;-79.438;2023-09-19T07:38:06;22.40;58.90
33580;DHT22;19909;43.644;-79.438;2023-09-19T07:40:33;22.40;58.90
33580;DHT22;19909;43.644;-79.438;2023-09-19T07:43:00;22.40;58.90
33580;DHT22;19909;43.644;-79.438;2023-09-19T07:45:33;22.40;58.80
33580;DHT22;19909;43.644;-79.438;2023-09-19T07:47:59;22.40;58.80
33580;DHT22;19909;43.644;-79.438;2023-09-19T07:50:30;22.40;58.80
33580;DHT22;19909;43.644;-79.438;2023-09-19T07:52:56;22.40;58.80
33580;DHT22;19909;43.644;-79.438;2023-09-19T07:55:22;22.40;58.80
33580;DHT22;19909;43.644;-79.438;2023-09-19T07:57:55;22.40;58.80
33580;DHT22;19909;43.644;-79.438;2023-09-19T08:00:21;22.40;58.90
33580;DHT22;19909;43.644;-79.438;2023-09-19T08:02:47;22.40;58.80
33580;DHT22;19909;43.644;-79.438;2023-09-19T08:05:13;22.40;58.90
33580;DHT22;19909;43.644;-79.438;2023-09-19T08:07:44;22.40;58.90
33580;DHT22;19909;43.644;-79.438;2023-09-19T08:10:22;22.40;58.90
33580;DHT22;19909;43.644;-79.438;2023-09-19T08:12:48;22.40;58.90
33580;DHT22;19909;43.644;-79.438;2023-09-19T08:15:19;22.40;58.80
33580;DHT22;19909;43.644;-79.438;2023-09-19T08:17:46;22.40;58.80
33580;DHT22;19909;43.644;-79.438;2023-09-19T08:20:13;22.40;58.80
33580;DHT22;19909;43.644;-79.438;2023-09-19T08:22:49;22.40;58.80
33580;DHT22;19909;43.644;-79.438;2023-09-19T08:25:18;22.40;58.80
33580;DHT22;19909;43.644;-79.438;2023-09-19T08:27:45;22.40;58.70
33580;DHT22;19909;43.644;-79.438;2023-09-19T08:30:20;22.40;58.80
33580;DHT22;19909;43.644;-79.438;2023-09-19T08:32:50;22.40;58.80
33580;DHT22;19909;43.644;-79.438;2023-09-19T08:35:16;22.40;58.90
33580;DHT22;19909;43.644;-79.438;2023-09-19T08:37:43;22.40;58.90
33580;DHT22;19909;43.644;-79.438;2023-09-19T08:40:11;22.40;58.90
33580;DHT22;19909;43.644;-79.438;2023-09-19T08:42:51;22.40;58.90
33580;DHT22;19909;43.644;-79.438;2023-09-19T08:45:23;22.40;58.80
33580;DHT22;19909;43.644;-79.438;2023-09-19T08:53:54;22.30;58.80
33580;DHT22;19909;43.644;-79.438;2023-09-19T08:56:22;22.40;58.80
33580;DHT22;19909;43.644;-79.438;2023-09-19T08:58:55;22.40;58.80
33580;DHT22;19909;43.644;-79.438;2023-09-19T09:01:27;22.40;58.90
33580;DHT22;19909;43.644;-79.438;2023-09-19T09:03:55;22.30;58.80
33580;DHT22;19909;43.644;-79.438;2023-09-19T09:06:23;22.30;58.80
33580;DHT22;19909;43.644;-79.438;2023-09-19T09:08:52;22.40;58.90
33580;DHT22;19909;43.644;-79.438;2023-09-19T09:11:19;22.30;58.80
33580;DHT22;19909;43.644;-79.438;2023-09-19T09:13:47;22.30;58.70
33580;DHT22;19909;43.644;-79.438;2023-09-19T09:16:14;22.30;58.70
33580;DHT22;19909;43.644;-79.438;2023-09-19T09:18:45;22.30;58.60
33580;DHT22;19909;43.644;-79.438;2023-09-19T09:21:12;22.30;58.70
33580;DHT22;19909;43.644;-79.438;2023-09-19T09:23:39;22.30;58.70
33580;DHT22;19909;43.644;-79.438;2023-09-19T09:26:05;22.30;58.70
33580;DHT22;19909;43.644;-79.438;2023-09-19T09:28:34;22.40;58.80
33580;DHT22;19909;43.644;-79.438;2023-09-19T09:31:02;22.40;58.80
33580;DHT22;19909;43.644;-79.438;2023-09-19T09:33:34;22.30;58.80
33580;DHT22;19909;43.644;-79.438;2023-09-19T09:36:02;22.30;58.80
33580;DHT22;19909;43.644;-79.438;2023-09-19T09:38:45;22.30;58.80
33580;DHT22;19909;43.644;-79.438;2023-09-19T09:41:12;22.30;58.80
33580;DHT22;19909;43.644;-79.438;2023-09-19T09:43:42;22.30;58.60
33580;DHT22;19909;43.644;-79.438;2023-09-19T09:46:17;22.30;58.60
33580;DHT22;19909;43.644;-79.438;2023-09-19T09:48:56;22.30;58.60
33580;DHT22;19909;43.644;-79.438;2023-09-19T09:52:15;22.30;58.60
33580;DHT22;19909;43.644;-79.438;2023-09-19T09:55:04;22.30;58.70
33580;DHT22;19909;43.644;-79.438;2023-09-19T09:57:34;22.30;58.70
33580;DHT22;19909;43.644;-79.438;2023-09-19T10:00:01;22.30;58.70
33580;DHT22;19909;43.644;-79.438;2023-09-19T10:02:37;22.30;58.80
33580;DHT22;19909;43.644;-79.438;2023-09-19T10:05:16;22.30;58.80
33580;DHT22;19909;43.644;-79.438;2023-09-19T10:07:55;22.30;58.80
33580;DHT22;19909;43.644;-79.438;2023-09-19T10:10:38;22.30;58.80
33580;DHT22;19909;43.644;-79.438;2023-09-19T10:13:09;22.30;58.80
33580;DHT22;19909;43.644;-79.438;2023-09-19T10:15:51;22.20;58.60
33580;DHT22;19909;43.644;-79.438;2023-09-19T10:18:23;22.30;58.60
33580;DHT22;19909;43.644;-79.438;2023-09-19T10:20:49;22.30;58.60
33580;DHT22;19909;43.644;-79.438;2023-09-19T10:23:18;22.30;58.70
33580;DHT22;19909;43.644;-79.438;2023-09-19T10:25:52;22.30;58.70
33580;DHT22;19909;43.644;-79.438;2023-09-19T10:28:19;22.30;58.70
33580;DHT22;19909;43.644;-79.438;2023-09-19T10:30:50;22.30;58.80
33580;DHT22;19909;43.644;-79.438;2023-09-19T10:33:22;22.30;58.70
33580;DHT22;19909;43.644;-79.438;2023-09-19T10:35:49;22.30;58.70
33580;DHT22;19909;43.644;-79.438;2023-09-19T10:38:19;22.30;58.80
33580;DHT22;19909;43.644;-79.438;2023-09-19T10:40:51;22.20;58.70
33580;DHT22;19909;43.644;-79.438;2023-09-19T10:43:19;22.30;58.60
33580;DHT22;19909;43.644;-79.438;2023-09-19T10:45:48;22.30;58.60
33580;DHT22;19909;43.644;-79.438;2023-09-19T10:48:18;22.30;58.60
33580;DHT22;19909;43.644;-79.438;2023-09-19T10:51:10;22.30;58.60
33580;DHT22;19909;43.644;-79.438;2023-09-19T10:53:55;22.30;58.60
33580;DHT22;19909;43.644;-79.438;2023-09-19T10:56:36;22.30;58.60
33580;DHT22;19909;43.644;-79.438;2023-09-19T10:59:16;22.20;58.60
33580;DHT22;19909;43.644;-79.438;2023-09-19T11:09:52;22.20;58.70
33580;DHT22;19909;43.644;-79.438;2023-09-19T11:15:09;22.20;58.30
33580;DHT22;19909;43.644;-79.438;2023-09-19T11:17:40;22.20;58.30
33580;DHT22;19909;43.644;-79.438;2023-09-19T11:33:18;22.20;58.60
33580;DHT22;19909;43.644;-79.438;2023-09-19T11:49:18;22.30;58.40
33580;DHT22;19909;43.644;-79.438;2023-09-19T11:51:52;22.40;58.60
33580;DHT22;19909;43.644;-79.438;2023-09-19T11:54:18;22.40;58.50
33580;DHT22;19909;43.644;-79.438;2023-09-19T11:56:45;22.40;58.40
33580;DHT22;19909;43.644;-79.438;2023-09-19T11:59:24;22.40;58.50
33580;DHT22;19909;43.644;-79.438;2023-09-19T12:01:57;22.40;58.50
33580;DHT22;19909;43.644;-79.438;2023-09-19T12:04:39;22.40;58.40
33580;DHT22;19909;43.644;-79.438;2023-09-19T12:07:10;22.50;58.50
33580;DHT22;19909;43.644;-79.438;2023-09-19T12:09:44;22.40;58.40
33580;DHT22;19909;43.644;-79.438;2023-09-19T12:12:19;22.40;58.30
33580;DHT22;19909;43.644;-79.438;2023-09-19T12:14:50;22.40;58.40
33580;DHT22;19909;43.644;-79.438;2023-09-19T12:17:17;22.50;58.20
33580;DHT22;19909;43.644;-79.438;2023-09-19T12:19:58;22.40;58.20
33580;DHT22;19909;43.644;-79.438;2023-09-19T12:22:24;22.50;58.20
33580;DHT22;19909;43.644;-79.438;2023-09-19T12:24:51;22.40;58.20
33580;DHT22;19909;43.644;-79.438;2023-09-19T12:27:20;22.50;58.30
33580;DHT22;19909;43.644;-79.438;2023-09-19T12:29:48;22.50;58.30
33580;DHT22;19909;43.644;-79.438;2023-09-19T12:32:15;22.40;58.20
33580;DHT22;19909;43.644;-79.438;2023-09-19T12:34:53;22.50;58.30
33580;DHT22;19909;43.644;-79.438;2023-09-19T12:37:20;22.50;58.30
33580;DHT22;19909;43.644;-79.438;2023-09-19T12:39:51;22.40;58.30
33580;DHT22;19909;43.644;-79.438;2023-09-19T12:42:26;22.50;58.40
33580;DHT22;19909;43.644;-79.438;2023-09-19T12:45:01;22.50;58.20
33580;DHT22;19909;43.644;-79.438;2023-09-19T12:47:28;22.50;58.20
33580;DHT22;19909;43.644;-79.438;2023-09-19T12:50:15;22.50;58.10
33580;DHT22;19909;43.644;-79.438;2023-09-19T12:52:49;22.50;58.20
33580;DHT22;19909;43.644;-79.438;2023-09-19T12:55:28;22.40;58.10
33580;DHT22;19909;43.644;-79.438;2023-09-19T12:58:13;22.40;58.20
33580;DHT22;19909;43.644;-79.438;2023-09-19T13:00:42;22.40;58.20
33580;DHT22;19909;43.644;-79.438;2023-09-19T13:03:28;22.40;58.20
33580;DHT22;19909;43.644;-79.438;2023-09-19T13:06:03;22.40;58.20
33580;DHT22;19909;43.644;-79.438;2023-09-19T13:08:31;22.50;58.30
33580;DHT22;19909;43.644;-79.438;2023-09-19T13:13:40;22.40;58.20
33580;DHT22;19909;43.644;-79.438;2023-09-19T13:16:07;22.40;58.10
33580;DHT22;19909;43.644;-79.438;2023-09-19T13:21:14;22.40;58.00
33580;DHT22;19909;43.644;-79.438;2023-09-19T13:24:01;22.40;58.00
33580;DHT22;19909;43.644;-79.438;2023-09-19T13:26:40;22.40;58.10
33580;DHT22;19909;43.644;-79.438;2023-09-19T13:29:06;22.40;58.10
33580;DHT22;19909;43.644;-79.438;2023-09-19T13:31:32;22.40;58.10
33580;DHT22;19909;43.644;-79.438;2023-09-19T13:33:58;22.40;58.10
33580;DHT22;19909;43.644;-79.438;2023-09-19T13:36:24;22.40;58.10
33580;DHT22;19909;43.644;-79.438;2023-09-19T13:38:50;22.40;58.10
33580;DHT22;19909;43.644;-79.438;2023-09-19T13:41:18;22.40;58.20
33580;DHT22;19909;43.644;-79.438;2023-09-19T13:43:45;22.40;58.20
33580;DHT22;19909;43.644;-79.438;2023-09-19T13:46:14;22.40;57.90
33580;DHT22;19909;43.644;-79.438;2023-09-19T13:48:43;22.40;57.90
33580;DHT22;19909;43.644;-79.438;2023-09-19T13:51:09;22.40;57.90
33580;DHT22;19909;43.644;-79.438;2023-09-19T13:53:36;22.40;57.90
33580;DHT22;19909;43.644;-79.438;2023-09-19T13:56:02;22.40;58.00
33580;DHT22;19909;43.644;-79.438;2023-09-19T13:58:28;22.40;58.20
33580;DHT22;19909;43.644;-79.438;2023-09-19T14:00:57;22.40;57.90
33580;DHT22;19909;43.644;-79.438;2023-09-19T14:03:24;22.40;57.90
33580;DHT22;19909;43.644;-79.438;2023-09-19T14:05:50;22.40;58.10
33580;DHT22;19909;43.644;-79.438;2023-09-19T14:08:17;22.40;58.20
33580;DHT22;19909;43.644;-79.438;2023-09-19T14:10:43;22.40;58.20
33580;DHT22;19909;43.644;-79.438;2023-09-19T14:13:10;22.40;58.10
33580;DHT22;19909;43.644;-79.438;2023-09-19T14:15:38;22.30;57.80
33580;DHT22;19909;43.644;-79.438;2023-09-19T14:18:05;22.30;57.60
33580;DHT22;19909;43.644;-79.438;2023-09-19T14:20:31;22.30;57.70
33580;DHT22;19909;43.644;-79.438;2023-09-19T14:23:00;22.30;57.70
33580;DHT22;19909;43.644;-79.438;2023-09-19T14:25:27;22.30;57.80
33580;DHT22;19909;43.644;-79.438;2023-09-19T14:27:54;22.30;57.90
33580;DHT22;19909;43.644;-79.438;2023-09-19T14:30:20;22.30;57.90
33580;DHT22;19909;43.644;-79.438;2023-09-19T14:32:47;22.30;57.90
33580;DHT22;19909;43.644;-79.438;2023-09-19T14:35:13;22.30;58.00
33580;DHT22;19909;43.644;-79.438;2023-09-19T14:37:40;22.30;58.00
33580;DHT22;19909;43.644;-79.438;2023-09-19T14:40:07;22.30;58.00
33580;DHT22;19909;43.644;-79.438;2023-09-19T14:42:39;22.30;57.90
33580;DHT22;19909;43.644;-79.438;2023-09-19T14:45:06;22.30;57.60
33580;DHT22;19909;43.644;-79.438;2023-09-19T14:47:33;22.30;57.80
33580;DHT22;19909;43.644;-79.438;2023-09-19T14:50:03;22.30;57.70
33580;DHT22;19909;43.644;-79.438;2023-09-19T14:52:32;22.30;57.70
33580;DHT22;19909;43.644;-79.438;2023-09-19T14:55:00;22.30;57.90
33580;DHT22;19909;43.644;-79.438;2023-09-19T14:57:27;22.30;57.80
33580;DHT22;19909;43.644;-79.438;2023-09-19T14:59:54;22.30;57.80
33580;DHT22;19909;43.644;-79.438;2023-09-19T15:02:20;22.30;58.00
33580;DHT22;19909;43.644;-79.438;2023-09-19T15:04:46;22.30;58.00
33580;DHT22;19909;43.644;-79.438;2023-09-19T15:07:16;22.30;57.90
33580;DHT22;19909;43.644;-79.438;2023-09-19T15:09:43;22.30;58.00
33580;DHT22;19909;43.644;-79.438;2023-09-19T15:12:09;22.30;57.90
33580;DHT22;19909;43.644;-79.438;2023-09-19T15:14:40;22.30;57.60
33580;DHT22;19909;43.644;-79.438;2023-09-19T15:17:07;22.30;57.50
33580;DHT22;19909;43.644;-79.438;2023-09-19T15:19:34;22.30;57.80
33580;DHT22;19909;43.644;-79.438;2023-09-19T15:22:00;22.30;57.90
33580;DHT22;19909;43.644;-79.438;2023-09-19T15:24:27;22.30;57.80
33580;DHT22;19909;43.644;-79.438;2023-09-19T15:26:53;22.30;57.90
33580;DHT22;19909;43.644;-79.438;2023-09-19T15:29:21;22.30;57.90
33580;DHT22;19909;43.644;-79.438;2023-09-19T15:31:47;22.30;58.00
33580;DHT22;19909;43.644;-79.438;2023-09-19T15:34:13;22.30;58.00
33580;DHT22;19909;43.644;-79.438;2023-09-19T15:36:41;22.30;57.90
33580;DHT22;19909;43.644;-79.438;2023-09-19T15:39:08;22.30;58.00
33580;DHT22;19909;43.644;-79.438;2023-09-19T15:41:41;22.30;57.80
33580;DHT22;19909;43.644;-79.438;2023-09-19T15:44:15;22.20;57.30
33580;DHT22;19909;43.644;-79.438;2023-09-19T15:46:42;22.20;57.80
33580;DHT22;19909;43.644;-79.438;2023-09-19T15:49:09;22.30;57.50
33580;DHT22;19909;43.644;-79.438;2023-09-19T15:51:36;22.20;57.80
33580;DHT22;19909;43.644;-79.438;2023-09-19T15:54:09;22.30;58.00
33580;DHT22;19909;43.644;-79.438;2023-09-19T15:56:35;22.20;58.10
33580;DHT22;19909;43.644;-79.438;2023-09-19T15:59:01;22.20;58.10
33580;DHT22;19909;43.644;-79.438;2023-09-19T16:01:28;22.20;57.90
33580;DHT22;19909;43.644;-79.438;2023-09-19T16:03:54;22.20;57.80
33580;DHT22;19909;43.644;-79.438;2023-09-19T16:06:29;22.20;57.90
33580;DHT22;19909;43.644;-79.438;2023-09-19T16:08:57;22.20;57.90
33580;DHT22;19909;43.644;-79.438;2023-09-19T16:11:27;22.20;57.50
33580;DHT22;19909;43.644;-79.438;2023-09-19T16:13:54;22.20;56.80
33580;DHT22;19909;43.644;-79.438;2023-09-19T16:16:21;22.20;57.70
33580;DHT22;19909;43.644;-79.438;2023-09-19T16:19:00;22.20;57.70